Time;durP1;ratioP1;P1;durP2;ratioP2;P2;SDS_P1;SDS_P2;PMS_P1;PMS_P2;Temp;Humidity;BMP_temperature;BMP_pressure;BME280_temperature;BME280_humidity;BME280_pressure;Samples;Min_cycle;Max_cycle;Signal;HPM_P1;HPM_P2
2023/01/06 00:01:16;;;;;;;5.10;2.47;;;11.70;99.90;;;;;;5043341;28;20040;-39
2023/01/06 00:03:42;;;;;;;6.45;2.70;;;11.70;99.90;;;;;;5043591;28;20834;-40
2023/01/06 00:06:11;;;;;;;4.78;2.50;;;11.70;99.90;;;;;;5043405;28;20029;-40
2023/01/06 00:08:37;;;;;;;4.07;2.10;;;11.70;99.90;;;;;;5044318;28;20477;-39
2023/01/06 00:11:08;;;;;;;6.57;2.40;;;11.70;99.90;;;;;;5043259;28;20025;-40
2023/01/06 00:13:33;;;;;;;3.40;2.72;;;11.80;99.90;;;;;;5044209;28;20138;-37
2023/01/06 00:16:03;;;;;;;5.68;3.70;;;11.70;99.90;;;;;;5043622;28;20108;-38
2023/01/06 00:18:29;;;;;;;7.75;3.17;;;11.70;99.90;;;;;;5023739;28;20022;-38
2023/01/06 00:20:58;;;;;;;3.60;2.13;;;11.80;99.90;;;;;;5038097;28;20384;-40
2023/01/06 00:23:23;;;;;;;5.57;2.50;;;11.80;99.90;;;;;;5043731;28;20930;-39
2023/01/06 00:25:53;;;;;;;5.28;2.65;;;11.70;99.90;;;;;;5043625;28;20036;-39
2023/01/06 00:28:18;;;;;;;5.65;2.60;;;11.70;99.90;;;;;;5043731;28;20028;-40
2023/01/06 00:30:44;;;;;;;2.60;2.20;;;11.70;99.90;;;;;;5043205;28;20037;-40
2023/01/06 00:33:09;;;;;;;4.05;2.28;;;11.70;99.90;;;;;;5043212;28;20483;-39
2023/01/06 00:35:35;;;;;;;4.22;2.75;;;11.70;99.90;;;;;;5044451;28;20494;-39
2023/01/06 00:38:02;;;;;;;6.63;2.78;;;11.70;99.90;;;;;;5042355;28;20028;-39
2023/01/06 00:40:27;;;;;;;4.47;3.10;;;11.80;99.90;;;;;;5043656;28;20118;-38
2023/01/06 00:42:53;;;;;;;6.43;3.00;;;11.70;99.90;;;;;;5044109;28;20116;-38
2023/01/06 00:45:18;;;;;;;5.47;2.60;;;11.70;99.90;;;;;;5042302;28;20064;-41
2023/01/06 00:47:44;;;;;;;4.88;2.55;;;11.70;99.90;;;;;;5043593;28;20071;-41
2023/01/06 00:50:09;;;;;;;4.30;2.60;;;11.70;99.90;;;;;;5043365;28;20123;-39
2023/01/06 00:52:35;;;;;;;3.92;2.58;;;11.70;99.90;;;;;;5042932;28;20029;-39
2023/01/06 00:55:00;;;;;;;4.63;2.60;;;11.70;99.90;;;;;;5043159;28;20571;-40
2023/01/06 00:57:26;;;;;;;5.88;2.75;;;11.60;99.90;;;;;;5043906;28;20745;-41
2023/01/06 00:59:51;;;;;;;2.97;2.50;;;11.70;99.90;;;;;;5043467;28;20028;-40
2023/01/06 01:02:17;;;;;;;3.80;2.28;;;11.70;99.90;;;;;;5042730;28;20063;-39
2023/01/06 01:04:43;;;;;;;4.72;2.53;;;11.70;99.90;;;;;;5043714;28;20036;-40
2023/01/06 01:07:09;;;;;;;5.25;2.55;;;11.70;99.90;;;;;;5041652;28;20017;-37
2023/01/06 01:09:34;;;;;;;3.35;2.65;;;11.70;99.90;;;;;;5044240;28;20025;-40
2023/01/06 01:12:09;;;;;;;4.00;2.90;;;11.70;99.90;;;;;;5042974;28;20078;-40
2023/01/06 01:14:38;;;;;;;5.30;2.88;;;11.70;99.90;;;;;;5041944;28;20490;-39
2023/01/06 01:17:03;;;;;;;3.80;2.85;;;11.70;99.90;;;;;;5034844;28;20028;-38
2023/01/06 01:19:29;;;;;;;4.47;3.20;;;11.70;99.90;;;;;;5047376;28;20071;-40
2023/01/06 01:21:55;;;;;;;4.97;3.03;;;11.70;99.90;;;;;;5046428;28;20562;-39
2023/01/06 01:24:21;;;;;;;4.82;2.92;;;11.60;99.90;;;;;;5046648;28;20064;-39
2023/01/06 01:26:47;;;;;;;5.47;3.38;;;11.70;99.90;;;;;;5047322;28;20025;-40
2023/01/06 01:29:14;;;;;;;6.05;2.95;;;11.70;99.90;;;;;;5046426;28;20025;-39
2023/01/06 01:31:40;;;;;;;4.05;2.88;;;11.70;99.90;;;;;;5047398;28;20075;-38
2023/01/06 01:34:07;;;;;;;3.63;2.60;;;11.70;99.90;;;;;;5044548;28;20045;-39
2023/01/06 01:36:33;;;;;;;3.47;2.78;;;11.70;99.90;;;;;;5047376;28;20699;-44
2023/01/06 01:38:58;;;;;;;3.92;2.50;;;11.70;99.90;;;;;;5046304;28;20479;-41
2023/01/06 01:41:25;;;;;;;4.93;2.38;;;11.70;99.90;;;;;;5046180;28;20036;-37
2023/01/06 01:44:00;;;;;;;3.17;2.53;;;11.70;99.90;;;;;;5046723;28;20021;-40
2023/01/06 01:46:41;;;;;;;5.95;3.05;;;11.70;99.90;;;;;;5027405;28;20079;-38
2023/01/06 01:49:20;;;;;;;3.47;2.40;;;11.70;99.90;;;;;;5041661;28;20029;-38
2023/01/06 01:51:48;;;;;;;4.45;2.67;;;11.70;99.90;;;;;;5027440;28;20059;-40
2023/01/06 01:54:19;;;;;;;5.18;2.30;;;11.70;99.90;;;;;;5041665;28;20025;-39
2023/01/06 01:56:49;;;;;;;3.20;2.10;;;11.70;99.90;;;;;;5026742;28;20048;-38
2023/01/06 01:59:21;;;;;;;3.17;2.50;;;11.70;99.90;;;;;;5040941;28;20033;-38
2023/01/06 02:01:48;;;;;;;3.47;2.50;;;11.70;99.90;;;;;;5046385;28;20747;-40
2023/01/06 02:04:16;;;;;;;3.78;2.22;;;11.70;99.90;;;;;;5045539;28;20032;-39
2023/01/06 02:06:42;;;;;;;3.05;2.05;;;11.70;99.90;;;;;;5046730;28;20551;-40
2023/01/06 02:09:16;;;;;;;4.22;2.10;;;11.70;99.90;;;;;;5045342;28;20106;-39
2023/01/06 02:11:42;;;;;;;3.97;2.13;;;11.70;99.90;;;;;;5047039;28;20029;-40
2023/01/06 02:14:14;;;;;;;4.10;2.50;;;11.70;99.90;;;;;;5046013;28;20028;-38
2023/01/06 02:16:51;;;;;;;4.57;2.25;;;11.70;99.90;;;;;;5045913;28;20025;-37
2023/01/06 02:19:35;;;;;;;3.83;2.30;;;11.80;99.90;;;;;;5045516;28;20091;-37
2023/01/06 02:22:37;;;;;;;3.25;1.90;;;11.70;99.90;;;;;;5045751;28;20080;-39
2023/01/06 02:25:21;;;;;;;3.13;1.85;;;11.70;99.90;;;;;;5044517;28;20055;-37
2023/01/06 02:28:23;;;;;;;3.17;1.85;;;11.70;99.90;;;;;;5026372;28;20026;-40
2023/01/06 02:31:12;;;;;;;2.10;1.60;;;11.80;99.90;;;;;;5044849;28;20033;-40
2023/01/06 02:33:49;;;;;;;1.50;1.40;;;11.70;99.90;;;;;;5046579;28;20044;-40
2023/01/06 02:36:56;;;;;;;1.98;1.23;;;11.70;99.90;;;;;;5045691;28;20028;-39
2023/01/06 02:40:06;;;;;;;2.88;1.38;;;11.70;99.90;;;;;;5043357;28;20041;-37
2023/01/06 02:42:59;;;;;;;2.80;1.50;;;11.70;99.90;;;;;;5040274;28;20064;-39
2023/01/06 02:45:48;;;;;;;2.72;1.20;;;11.70;99.90;;;;;;5045566;28;20041;-40
2023/01/06 02:48:29;;;;;;;2.90;1.30;;;11.70;99.90;;;;;;5045097;28;20017;-41
2023/01/06 02:51:17;;;;;;;3.92;1.80;;;11.70;99.90;;;;;;5045698;28;20029;-40
2023/01/06 02:53:51;;;;;;;2.28;1.23;;;11.70;99.90;;;;;;5026354;28;20071;-40
2023/01/06 02:56:20;;;;;;;3.17;1.40;;;11.70;99.90;;;;;;5040688;28;20123;-39
2023/01/06 02:58:58;;;;;;;2.47;1.85;;;11.70;99.90;;;;;;5045160;28;20029;-40
2023/01/06 03:01:30;;;;;;;2.60;1.40;;;11.70;99.90;;;;;;5045746;28;20037;-38
2023/01/06 03:04:00;;;;;;;2.00;1.20;;;11.70;99.90;;;;;;5046206;28;20074;-40
2023/01/06 03:06:30;;;;;;;3.72;1.88;;;11.70;99.90;;;;;;5044853;28;20056;-40
2023/01/06 03:08:57;;;;;;;2.53;1.25;;;11.70;99.90;;;;;;5045160;28;20444;-39
2023/01/06 03:11:25;;;;;;;2.40;1.20;;;11.70;99.90;;;;;;5044985;28;20025;-39
2023/01/06 03:13:53;;;;;;;3.20;1.48;;;11.70;99.90;;;;;;5044645;28;20048;-41
2023/01/06 03:16:19;;;;;;;2.78;1.50;;;11.70;99.90;;;;;;5043990;28;20040;-39
2023/01/06 03:18:48;;;;;;;3.80;1.70;;;11.70;99.90;;;;;;5045562;28;20013;-40
2023/01/06 03:21:18;;;;;;;3.40;1.45;;;11.70;99.90;;;;;;5043397;28;20090;-40
2023/01/06 03:23:44;;;;;;;3.50;1.55;;;11.70;99.90;;;;;;5044926;28;20245;-38
2023/01/06 03:26:10;;;;;;;2.95;1.50;;;11.70;99.90;;;;;;5044298;28;20104;-40
2023/01/06 03:28:36;;;;;;;2.92;1.73;;;11.70;99.90;;;;;;5044414;28;20115;-40
2023/01/06 03:31:20;;;;;;;2.97;1.70;;;11.70;99.90;;;;;;5044457;28;20033;-40
2023/01/06 03:34:01;;;;;;;2.38;1.45;;;11.70;99.90;;;;;;5033840;28;20056;-40
2023/01/06 03:36:36;;;;;;;4.07;1.80;;;11.70;99.90;;;;;;5044823;28;20021;-39
2023/01/06 03:39:17;;;;;;;2.22;1.38;;;11.70;99.90;;;;;;5043942;28;20047;-39
2023/01/06 03:45:05;;;;;;;4.75;1.80;;;11.70;99.90;;;;;;5044764;28;20566;-40
2023/01/06 03:47:49;;;;;;;2.92;1.50;;;11.70;99.90;;;;;;5043974;28;20396;-39
2023/01/06 03:50:29;;;;;;;2.95;1.60;;;11.70;99.90;;;;;;5043936;28;20138;-40
2023/01/06 03:53:26;;;;;;;2.78;1.23;;;11.70;99.90;;;;;;5044211;28;20049;-40
2023/01/06 03:56:07;;;;;;;1.95;1.30;;;11.70;99.90;;;;;;5004402;28;20497;-38
2023/01/06 03:58:35;;;;;;;2.20;1.20;;;11.70;99.90;;;;;;5042106;28;20036;-39
2023/01/06 04:01:02;;;;;;;3.33;1.20;;;11.70;99.90;;;;;;5043708;28;20063;-39
2023/01/06 04:03:27;;;;;;;2.33;1.17;;;11.70;99.90;;;;;;5043312;28;20021;-41
2023/01/06 04:05:53;;;;;;;3.30;1.30;;;11.70;99.90;;;;;;5044324;28;20495;-38
2023/01/06 04:08:19;;;;;;;3.17;1.13;;;11.70;99.90;;;;;;5043283;28;20052;-40
2023/01/06 04:10:45;;;;;;;1.60;1.20;;;11.70;99.90;;;;;;5043662;28;20036;-38
2023/01/06 04:13:10;;;;;;;3.45;1.10;;;11.70;99.90;;;;;;5043748;28;20025;-40
2023/01/06 04:15:36;;;;;;;3.03;1.23;;;11.70;99.90;;;;;;5044623;28;20025;-39
2023/01/06 04:18:01;;;;;;;3.33;1.75;;;11.70;99.90;;;;;;5043385;28;20029;-39
2023/01/06 04:20:29;;;;;;;2.33;1.02;;;11.70;99.90;;;;;;5044118;28;20025;-37
2023/01/06 04:22:58;;;;;;;2.17;0.88;;;11.70;99.90;;;;;;5043095;28;20476;-40
2023/01/06 04:25:24;;;;;;;1.23;1.00;;;11.80;99.90;;;;;;5032546;28;20116;-41
2023/01/06 04:27:49;;;;;;;2.70;0.82;;;11.70;99.90;;;;;;5044303;28;20041;-40
2023/01/06 04:30:15;;;;;;;1.98;1.17;;;11.70;99.90;;;;;;5042465;28;20021;-39
2023/01/06 04:32:41;;;;;;;2.38;1.10;;;11.80;99.90;;;;;;5043938;28;20017;-40
2023/01/06 04:35:08;;;;;;;2.42;1.00;;;11.70;99.90;;;;;;5043109;28;20068;-39
2023/01/06 04:37:34;;;;;;;1.77;1.00;;;11.70;99.90;;;;;;5043326;28;20028;-41
2023/01/06 04:39:59;;;;;;;2.75;1.00;;;11.70;99.90;;;;;;5043276;28;20047;-41
2023/01/06 04:42:25;;;;;;;2.30;1.00;;;11.70;99.90;;;;;;5044280;28;20032;-40
2023/01/06 04:44:50;;;;;;;3.13;1.08;;;11.70;99.90;;;;;;5043037;28;20472;-38
2023/01/06 04:47:19;;;;;;;2.65;0.90;;;11.80;99.90;;;;;;5043477;28;20051;-39
2023/01/06 04:49:44;;;;;;;1.38;0.80;;;11.70;99.90;;;;;;5046134;28;20029;-40
2023/01/06 04:52:10;;;;;;;2.08;1.02;;;11.70;99.90;;;;;;5047230;28;20452;-42
2023/01/06 04:54:35;;;;;;;1.15;0.90;;;11.70;99.90;;;;;;5048010;28;20020;-41
2023/01/06 04:57:01;;;;;;;2.08;1.10;;;11.70;99.90;;;;;;5047384;28;20025;-39
2023/01/06 04:59:26;;;;;;;1.98;0.90;;;11.80;99.90;;;;;;5047484;28;20112;-40
2023/01/06 05:01:52;;;;;;;3.25;1.00;;;11.70;99.90;;;;;;5048037;28;20515;-41
2023/01/06 05:04:18;;;;;;;1.05;0.73;;;11.80;99.90;;;;;;5047496;28;20407;-40
2023/01/06 05:06:44;;;;;;;3.60;1.08;;;11.80;99.90;;;;;;5046931;28;20029;-40
2023/01/06 05:09:09;;;;;;;3.55;1.10;;;11.80;99.90;;;;;;5046991;28;20025;-40
2023/01/06 05:11:35;;;;;;;1.98;0.90;;;11.80;99.90;;;;;;5048021;28;20629;-40
2023/01/06 05:14:01;;;;;;;2.05;1.05;;;11.80;99.90;;;;;;5047092;28;20033;-39
2023/01/06 05:16:32;;;;;;;1.75;0.80;;;11.80;99.90;;;;;;5047025;28;20021;-40
2023/01/06 05:18:58;;;;;;;2.72;1.00;;;11.80;99.90;;;;;;5047062;28;20032;-40
2023/01/06 05:21:26;;;;;;;3.20;1.10;;;11.70;99.90;;;;;;5046668;28;20048;-37
2023/01/06 05:23:52;;;;;;;1.65;0.77;;;11.80;99.90;;;;;;5048034;28;20036;-36
2023/01/06 05:26:21;;;;;;;1.65;0.80;;;11.80;99.90;;;;;;5046566;28;20049;-39
2023/01/06 05:28:47;;;;;;;2.25;0.82;;;11.80;99.90;;;;;;5047482;28;20024;-39
2023/01/06 05:31:13;;;;;;;1.08;0.90;;;11.80;99.90;;;;;;5047083;28;20112;-40
2023/01/06 05:33:39;;;;;;;1.00;0.80;;;11.80;99.90;;;;;;5046960;28;20189;-39
2023/01/06 05:36:10;;;;;;;2.65;0.93;;;11.80;99.90;;;;;;5046507;28;20033;-39
2023/01/06 05:38:36;;;;;;;3.30;1.20;;;11.80;99.90;;;;;;5047532;28;20029;-39
2023/01/06 05:41:02;;;;;;;2.67;0.70;;;11.80;99.90;;;;;;5046032;28;20829;-42
2023/01/06 05:43:28;;;;;;;1.45;0.80;;;11.80;99.90;;;;;;5046790;28;20029;-38
2023/01/06 05:45:54;;;;;;;2.42;0.90;;;11.80;99.90;;;;;;5046758;28;20601;-40
2023/01/06 05:48:24;;;;;;;2.72;0.88;;;11.90;99.90;;;;;;5046022;28;20021;-40
2023/01/06 05:50:49;;;;;;;2.45;0.90;;;11.80;99.90;;;;;;5047036;28;20029;-40
2023/01/06 05:53:17;;;;;;;1.75;0.80;;;11.90;99.90;;;;;;5046784;28;20071;-39
2023/01/06 05:55:43;;;;;;;1.40;0.88;;;11.80;99.90;;;;;;5046206;28;20029;-40
2023/01/06 05:58:09;;;;;;;2.22;0.70;;;11.90;99.90;;;;;;5045969;28;20013;-40
2023/01/06 06:00:34;;;;;;;1.30;1.00;;;11.90;99.90;;;;;;5046247;28;20112;-39
2023/01/06 06:03:00;;;;;;;2.30;1.00;;;11.90;99.90;;;;;;5045294;28;20132;-40
2023/01/06 06:05:25;;;;;;;1.38;1.00;;;11.90;99.90;;;;;;5046689;28;20027;-39
2023/01/06 06:07:53;;;;;;;0.82;0.80;;;11.90;99.90;;;;;;5047079;28;20108;-36
2023/01/06 06:10:18;;;;;;;2.15;1.10;;;11.90;99.90;;;;;;5045134;28;20052;-41
2023/01/06 06:12:44;;;;;;;1.92;0.90;;;11.90;99.90;;;;;;5046562;28;20060;-40
2023/01/06 06:15:09;;;;;;;1.98;1.23;;;11.90;99.90;;;;;;5046234;28;20353;-39
2023/01/06 06:17:35;;;;;;;2.47;1.13;;;11.80;99.90;;;;;;5045599;28;20477;-39
2023/01/06 06:20:02;;;;;;;2.15;1.08;;;11.80;99.90;;;;;;5045831;28;20253;-41
2023/01/06 06:22:27;;;;;;;3.20;1.20;;;11.80;99.90;;;;;;5045711;28;20419;-38
2023/01/06 06:24:53;;;;;;;1.33;1.00;;;11.80;99.90;;;;;;5046637;28;20476;-39
2023/01/06 06:27:18;;;;;;;1.33;1.10;;;11.80;99.90;;;;;;5045750;28;20186;-40
2023/01/06 06:29:44;;;;;;;0.90;0.90;;;11.80;99.90;;;;;;5046247;28;20778;-42
2023/01/06 06:32:09;;;;;;;1.38;0.90;;;11.80;99.90;;;;;;5045943;28;20029;-40
2023/01/06 06:34:37;;;;;;;2.17;1.00;;;11.80;99.90;;;;;;5045946;28;20044;-39
2023/01/06 06:37:03;;;;;;;1.92;1.15;;;11.80;99.90;;;;;;5045230;28;20087;-38
2023/01/06 06:39:28;;;;;;;1.05;0.93;;;11.80;99.90;;;;;;5045763;28;20072;-39
2023/01/06 06:41:54;;;;;;;1.25;1.00;;;11.80;99.90;;;;;;5046292;28;20103;-39
2023/01/06 06:44:20;;;;;;;1.75;1.00;;;11.80;99.90;;;;;;5044748;28;20112;-38
2023/01/06 06:46:45;;;;;;;1.75;1.00;;;11.80;99.90;;;;;;5046271;28;20021;-38
2023/01/06 06:49:11;;;;;;;1.42;1.00;;;11.80;99.90;;;;;;5045678;28;20060;-40
2023/01/06 06:51:36;;;;;;;2.53;1.05;;;11.80;99.90;;;;;;5045979;28;20025;-39
2023/01/06 06:54:03;;;;;;;2.55;1.00;;;11.80;99.90;;;;;;5045599;28;20102;-40
2023/01/06 06:56:28;;;;;;;2.38;1.10;;;11.80;99.90;;;;;;5046055;28;20045;-39
2023/01/06 06:58:54;;;;;;;2.83;0.90;;;11.80;99.90;;;;;;5045526;28;20139;-41
2023/01/06 07:01:20;;;;;;;1.98;1.35;;;11.80;99.90;;;;;;5044991;28;20036;-39
2023/01/06 07:03:46;;;;;;;1.40;0.98;;;11.80;99.90;;;;;;5045851;28;20040;-40
2023/01/06 07:06:16;;;;;;;1.20;1.10;;;11.80;99.90;;;;;;5044265;28;20025;-39
2023/01/06 07:08:43;;;;;;;1.67;1.27;;;11.80;99.90;;;;;;5045341;28;20029;-37
2023/01/06 07:11:09;;;;;;;1.00;0.90;;;11.80;99.90;;;;;;5045173;28;20083;-40
2023/01/06 07:13:34;;;;;;;1.52;1.10;;;11.80;99.90;;;;;;5043173;28;20603;-40
2023/01/06 07:16:00;;;;;;;1.05;1.02;;;11.80;99.90;;;;;;5044795;28;20033;-41
2023/01/06 07:18:25;;;;;;;2.45;1.40;;;11.80;99.90;;;;;;5045804;28;20134;-39
2023/01/06 07:20:54;;;;;;;1.17;1.17;;;11.80;99.90;;;;;;5044760;28;20723;-40
2023/01/06 07:23:21;;;;;;;1.90;1.27;;;11.80;99.90;;;;;;5044646;28;20063;-38
2023/01/06 07:25:55;;;;;;;2.38;1.10;;;11.80;99.90;;;;;;5044456;28;20822;-38
2023/01/06 07:28:21;;;;;;;1.25;1.15;;;11.80;99.90;;;;;;5044418;28;20037;-37
2023/01/06 07:30:47;;;;;;;1.40;1.10;;;11.80;99.90;;;;;;5045110;28;20757;-39
2023/01/06 07:33:25;;;;;;;1.48;1.38;;;11.80;99.90;;;;;;5101375;27;20683;-40
2023/01/06 07:35:55;;;;;;;2.22;1.27;;;11.80;99.90;;;;;;5102400;28;20451;-39
2023/01/06 07:38:21;;;;;;;2.08;1.50;;;11.70;99.90;;;;;;5101689;28;20027;-39
2023/01/06 07:40:47;;;;;;;1.45;1.35;;;11.70;99.90;;;;;;5101393;28;20377;-40
2023/01/06 07:43:16;;;;;;;3.95;1.50;;;11.60;99.90;;;;;;5101470;28;20455;-33
2023/01/06 07:45:42;;;;;;;1.50;1.40;;;11.60;99.90;;;;;;5101511;28;20081;-39
2023/01/06 07:48:08;;;;;;;1.50;1.40;;;11.60;99.90;;;;;;5100279;28;20118;-40
2023/01/06 07:50:33;;;;;;;2.30;1.75;;;11.50;99.90;;;;;;5101870;28;20060;-39
2023/01/06 07:53:01;;;;;;;2.45;2.20;;;11.50;99.90;;;;;;5101701;28;20036;-34
2023/01/06 07:55:27;;;;;;;2.70;2.22;;;11.50;99.90;;;;;;5101068;28;20657;-36
2023/01/06 07:57:53;;;;;;;2.60;2.40;;;11.50;99.90;;;;;;5101742;28;20118;-40
2023/01/06 08:00:19;;;;;;;3.33;2.55;;;11.50;99.90;;;;;;5100722;28;20052;-39
2023/01/06 08:02:45;;;;;;;2.67;2.38;;;11.40;99.90;;;;;;5101169;28;20038;-39
2023/01/06 08:05:10;;;;;;;2.50;2.30;;;11.40;99.90;;;;;;5100700;28;20016;-35
2023/01/06 08:07:36;;;;;;;2.70;2.50;;;11.40;99.90;;;;;;5101291;28;20030;-37
2023/01/06 08:10:01;;;;;;;2.65;2.45;;;11.40;99.90;;;;;;5100582;28;20109;-36
2023/01/06 08:12:27;;;;;;;2.70;2.50;;;11.40;99.90;;;;;;5100914;28;20031;-38
2023/01/06 08:14:52;;;;;;;2.67;2.47;;;11.40;99.90;;;;;;5100890;28;20619;-37
2023/01/06 08:17:18;;;;;;;2.80;2.50;;;11.40;99.90;;;;;;5100582;28;20408;-39
2023/01/06 08:19:43;;;;;;;2.90;2.63;;;11.40;99.90;;;;;;5100993;28;20020;-40
2023/01/06 08:22:09;;;;;;;2.80;2.60;;;11.40;99.90;;;;;;5099539;28;20019;-41
2023/01/06 08:24:34;;;;;;;2.85;2.65;;;11.40;99.90;;;;;;5100937;28;20764;-39
2023/01/06 08:27:00;;;;;;;3.30;3.00;;;11.40;99.90;;;;;;5099968;28;20024;-39
2023/01/06 08:29:26;;;;;;;3.67;2.80;;;11.40;99.90;;;;;;5099944;28;20844;-38
2023/01/06 08:31:52;;;;;;;2.95;2.75;;;11.30;99.90;;;;;;5100642;28;20063;-40
2023/01/06 08:34:18;;;;;;;2.85;2.65;;;11.30;99.90;;;;;;5099707;28;20082;-41
2023/01/06 08:36:44;;;;;;;3.20;2.90;;;11.20;99.90;;;;;;5099401;28;20027;-40
2023/01/06 08:39:12;;;;;;;3.60;3.30;;;11.20;99.90;;;;;;5100370;28;20032;-40
2023/01/06 08:41:39;;;;;;;2.65;2.45;;;11.30;99.90;;;;;;5100432;28;20058;-36
2023/01/06 08:44:05;;;;;;;3.38;2.53;;;11.20;99.90;;;;;;5089085;28;20020;-37
2023/01/06 08:46:30;;;;;;;2.85;2.42;;;11.30;99.90;;;;;;5087313;28;20959;-39
2023/01/06 08:48:56;;;;;;;3.50;3.28;;;11.30;99.90;;;;;;5086620;28;20819;-39
2023/01/06 08:51:23;;;;;;;2.90;2.70;;;11.30;99.90;;;;;;5085768;28;20046;-39
2023/01/06 08:53:49;;;;;;;3.47;2.80;;;11.40;99.90;;;;;;5086895;28;20565;-39
2023/01/06 08:56:18;;;;;;;3.05;2.75;;;11.40;99.90;;;;;;5086946;28;20032;-40
2023/01/06 08:58:44;;;;;;;3.25;2.95;;;11.50;99.90;;;;;;5085728;28;20357;-37
2023/01/06 09:01:17;;;;;;;2.83;2.63;;;11.50;99.90;;;;;;5086623;28;20020;-38
2023/01/06 09:03:43;;;;;;;3.50;2.60;;;11.50;99.90;;;;;;5086437;28;20035;-38
2023/01/06 09:06:09;;;;;;;2.30;2.10;;;11.50;99.90;;;;;;5085675;28;20043;-43
2023/01/06 09:08:36;;;;;;;2.05;1.90;;;11.60;99.90;;;;;;5087157;28;20031;-35
2023/01/06 09:11:06;;;;;;;2.10;2.00;;;11.50;99.90;;;;;;5085938;28;20035;-36
2023/01/06 09:13:32;;;;;;;2.53;1.90;;;11.60;99.90;;;;;;5086321;28;20031;-38
2023/01/06 09:15:58;;;;;;;2.53;1.73;;;11.60;99.90;;;;;;5086796;28;20024;-38
2023/01/06 09:18:24;;;;;;;2.60;1.70;;;11.60;99.90;;;;;;5085331;28;20016;-38
2023/01/06 09:20:49;;;;;;;2.35;1.70;;;11.60;99.90;;;;;;5086432;28;20035;-39
2023/01/06 09:23:15;;;;;;;2.38;1.38;;;11.60;99.90;;;;;;5086066;28;20035;-40
2023/01/06 09:25:40;;;;;;;3.45;1.55;;;11.70;99.90;;;;;;5085339;28;20550;-40
2023/01/06 09:28:06;;;;;;;3.13;1.33;;;11.60;99.90;;;;;;5085693;28;20142;-38
2023/01/06 09:30:31;;;;;;;4.35;1.33;;;11.70;99.90;;;;;;5086138;28;20035;-38
2023/01/06 09:32:57;;;;;;;4.07;2.03;;;11.70;99.90;;;;;;5085190;28;20055;-39
2023/01/06 09:35:23;;;;;;;3.17;1.25;;;11.80;99.90;;;;;;5086089;28;20052;-40
2023/01/06 09:37:48;;;;;;;3.55;1.40;;;11.80;99.90;;;;;;5085897;28;20043;-40
2023/01/06 09:40:22;;;;;;;3.20;1.20;;;11.80;99.90;;;;;;5084718;28;20028;-38
2023/01/06 09:43:16;;;;;;;2.80;1.40;;;11.80;99.90;;;;;;5085744;28;20028;-41
2023/01/06 09:45:54;;;;;;;3.05;1.95;;;11.90;99.90;;;;;;5083037;28;20028;-40
2023/01/06 09:48:32;;;;;;;2.47;1.25;;;11.90;99.90;;;;;;5084969;28;20036;-40
2023/01/06 09:51:01;;;;;;;2.58;1.27;;;11.90;99.90;;;;;;5082649;28;20020;-36
2023/01/06 09:53:29;;;;;;;2.22;1.20;;;11.90;99.90;;;;;;5084886;28;20093;-37
2023/01/06 09:56:18;;;;;;;1.63;1.40;;;11.90;99.90;;;;;;5084866;28;20394;-36
2023/01/06 09:59:03;;;;;;;2.75;1.33;;;11.90;99.90;;;;;;5085422;28;20487;-35
2023/01/06 10:01:35;;;;;;;5.28;1.70;;;11.80;99.90;;;;;;5083616;28;20472;-38
2023/01/06 10:04:01;;;;;;;4.95;1.80;;;11.90;99.90;;;;;;5084875;28;20078;-43
2023/01/06 10:06:36;;;;;;;4.90;1.45;;;11.90;99.90;;;;;;5085916;28;20570;-38
2023/01/06 10:09:15;;;;;;;7.57;1.80;;;11.90;99.90;;;;;;5084380;28;20590;-36
2023/01/06 10:12:13;;;;;;;3.97;1.40;;;12.00;99.90;;;;;;5083055;28;20043;-38
2023/01/06 10:14:49;;;;;;;5.63;2.03;;;12.10;99.90;;;;;;5084408;28;20031;-37
2023/01/06 10:17:48;;;;;;;5.20;1.52;;;12.00;99.90;;;;;;5074389;28;20540;-35
2023/01/06 10:20:27;;;;;;;3.88;1.30;;;12.10;99.90;;;;;;5084994;28;20047;-39
2023/01/06 10:23:15;;;;;;;3.97;1.20;;;12.00;99.90;;;;;;5084991;28;20028;-39
2023/01/06 10:25:49;;;;;;;4.55;1.33;;;12.00;99.90;;;;;;5084972;28;20030;-40
2023/01/06 10:28:34;;;;;;;4.80;1.70;;;12.10;99.90;;;;;;5084769;28;20062;-39
2023/01/06 10:31:05;;;;;;;4.97;1.30;;;12.10;99.90;;;;;;5084383;28;20032;-39
2023/01/06 10:33:43;;;;;;;4.13;1.00;;;12.10;99.90;;;;;;5085523;28;20028;-39
2023/01/06 10:36:14;;;;;;;2.78;1.10;;;12.00;99.90;;;;;;5084485;28;20115;-41
2023/01/06 10:38:45;;;;;;;4.60;1.30;;;12.00;99.90;;;;;;5084758;28;20056;-40
2023/01/06 10:41:36;;;;;;;3.60;1.08;;;12.00;99.90;;;;;;5084108;28;20438;-40
2023/01/06 10:44:02;;;;;;;2.35;1.00;;;12.00;99.90;;;;;;5083997;28;20031;-35
2023/01/06 10:46:35;;;;;;;5.85;2.00;;;12.00;99.90;;;;;;5084638;28;20486;-38
2023/01/06 10:49:03;;;;;;;5.47;1.10;;;12.00;99.90;;;;;;5084215;28;20039;-38
2023/01/06 10:51:39;;;;;;;3.85;1.10;;;12.00;99.90;;;;;;5084156;28;20127;-41
2023/01/06 10:54:12;;;;;;;3.97;1.10;;;12.00;99.90;;;;;;5084167;28;20036;-39
2023/01/06 10:56:41;;;;;;;3.63;1.60;;;12.10;99.90;;;;;;5083811;28;20044;-42
2023/01/06 10:59:11;;;;;;;2.83;1.23;;;12.10;99.90;;;;;;5084066;28;20028;-39
2023/01/06 11:01:56;;;;;;;3.60;0.88;;;12.10;99.90;;;;;;5084588;28;20578;-41
2023/01/06 11:04:23;;;;;;;3.25;1.15;;;12.10;99.90;;;;;;5083162;28;20555;-40
2023/01/06 11:06:52;;;;;;;3.42;0.80;;;12.10;99.90;;;;;;5084342;28;20477;-35
2023/01/06 11:09:41;;;;;;;4.32;0.77;;;12.10;99.90;;;;;;5084450;28;20265;-40
2023/01/06 11:12:25;;;;;;;4.65;1.00;;;12.10;99.90;;;;;;5082813;28;20361;-38
2023/01/06 11:15:04;;;;;;;6.68;1.00;;;12.10;99.90;;;;;;5083889;28;20466;-39
2023/01/06 11:17:30;;;;;;;3.08;0.90;;;12.10;99.90;;;;;;5083717;28;20046;-39
2023/01/06 11:20:17;;;;;;;5.68;1.20;;;12.10;99.90;;;;;;5083753;28;20647;-39
2023/01/06 11:22:43;;;;;;;6.22;1.25;;;12.00;99.90;;;;;;5083770;28;20031;-40
2023/01/06 11:25:21;;;;;;;3.20;0.60;;;11.90;99.90;;;;;;5082606;28;20743;-38
2023/01/06 11:28:08;;;;;;;3.83;0.82;;;11.90;99.90;;;;;;5084106;28;20115;-38
2023/01/06 11:30:44;;;;;;;3.75;0.90;;;11.90;99.90;;;;;;5084389;28;20044;-39
2023/01/06 11:33:16;;;;;;;3.33;0.90;;;11.90;99.90;;;;;;5082456;28;20056;-39
2023/01/06 11:35:42;;;;;;;2.97;0.80;;;11.90;99.90;;;;;;5084394;28;20036;-40
2023/01/06 11:38:13;;;;;;;4.13;0.68;;;11.90;99.90;;;;;;5083937;28;20414;-39
2023/01/06 11:40:44;;;;;;;4.78;0.93;;;11.90;99.90;;;;;;5082939;28;20077;-39
2023/01/06 11:43:14;;;;;;;5.00;1.00;;;12.00;99.90;;;;;;5083167;28;20032;-39
2023/01/06 11:45:52;;;;;;;3.45;0.80;;;12.00;99.90;;;;;;5083936;28;20024;-39
2023/01/06 11:48:41;;;;;;;3.38;0.80;;;12.00;99.90;;;;;;5083196;28;20020;-41
2023/01/06 11:51:08;;;;;;;5.32;0.90;;;12.00;99.90;;;;;;5083562;28;20028;-39
2023/01/06 11:53:35;;;;;;;3.80;0.77;;;12.00;99.90;;;;;;5082577;28;20503;-39
2023/01/06 11:56:22;;;;;;;3.95;0.70;;;12.00;99.90;;;;;;5083479;28;20929;-38
2023/01/06 11:59:06;;;;;;;3.53;0.77;;;12.10;99.90;;;;;;5083572;28;20036;-39
2023/01/06 12:01:54;;;;;;;3.65;1.00;;;12.20;99.90;;;;;;5083612;28;20028;-40
2023/01/06 12:04:25;;;;;;;1.65;0.95;;;12.20;99.90;;;;;;5082834;28;20039;-40
2023/01/06 12:06:58;;;;;;;4.78;1.00;;;12.20;99.90;;;;;;5083821;28;20064;-40
2023/01/06 12:09:35;;;;;;;2.83;0.73;;;12.20;99.90;;;;;;5084148;28;20032;-36
2023/01/06 12:12:08;;;;;;;3.17;0.90;;;12.20;99.90;;;;;;5083158;28;20684;-39
2023/01/06 12:14:36;;;;;;;3.17;0.77;;;12.20;99.90;;;;;;5082989;28;20020;-38
2023/01/06 12:17:10;;;;;;;5.40;1.25;;;12.20;99.90;;;;;;5083070;28;20113;-39
2023/01/06 12:19:42;;;;;;;4.70;0.90;;;12.20;99.90;;;;;;5086352;28;20027;-38
2023/01/06 12:22:31;;;;;;;2.88;0.70;;;12.30;99.90;;;;;;5086554;28;20078;-39
2023/01/06 12:24:58;;;;;;;1.45;0.68;;;12.40;99.90;;;;;;5048697;28;20032;-40
2023/01/06 12:27:33;;;;;;;3.35;0.70;;;12.40;99.90;;;;;;5086713;28;20032;-36
2023/01/06 12:30:04;;;;;;;3.60;1.15;;;12.50;99.90;;;;;;5086198;28;20028;-39
2023/01/06 12:32:37;;;;;;;3.47;0.98;;;12.50;99.90;;;;;;5087439;28;20552;-40
2023/01/06 12:35:05;;;;;;;2.20;0.77;;;12.50;99.90;;;;;;5086373;28;20070;-40
2023/01/06 12:38:02;;;;;;;2.97;0.77;;;12.50;99.90;;;;;;5086982;28;20453;-39
2023/01/06 12:40:38;;;;;;;1.83;0.70;;;12.50;99.90;;;;;;5085935;28;20031;-36
2023/01/06 12:43:11;;;;;;;2.65;0.85;;;12.60;99.90;;;;;;5086273;28;20808;-39
2023/01/06 12:45:50;;;;;;;1.88;0.77;;;12.60;99.90;;;;;;5086884;28;20395;-38
2023/01/06 12:48:44;;;;;;;2.92;0.80;;;12.60;99.90;;;;;;5086722;28;20173;-39
2023/01/06 12:51:39;;;;;;;4.05;1.42;;;12.60;99.90;;;;;;5075438;28;20482;-40
2023/01/06 12:54:17;;;;;;;3.28;0.90;;;12.60;99.90;;;;;;5066113;28;20396;-39
2023/01/06 12:57:03;;;;;;;5.38;0.90;;;12.50;99.90;;;;;;5084631;28;20024;-37
2023/01/06 12:59:44;;;;;;;3.80;1.40;;;12.60;99.90;;;;;;5086674;28;20028;-40
2023/01/06 13:02:28;;;;;;;3.40;0.98;;;12.60;99.90;;;;;;5085568;28;20097;-39
2023/01/06 13:05:31;;;;;;;1.92;0.73;;;12.60;99.90;;;;;;5085809;28;20024;-39
2023/01/06 13:08:30;;;;;;;3.47;0.87;;;12.60;99.90;;;;;;5076275;28;20124;-40
2023/01/06 13:11:43;;;;;;;2.03;0.70;;;12.60;99.90;;;;;;5085633;28;20304;-39